Time;durP1;ratioP1;P1;durP2;ratioP2;P2;SDS_P1;SDS_P2;PMS_P1;PMS_P2;Temp;Humidity;BMP_temperature;BMP_pressure;BME280_temperature;BME280_humidity;BME280_pressure;Samples;Min_cycle;Max_cycle;Signal;HPM_P1;HPM_P2
2023/05/12 00:02:17;;;;;;;5.47;4.97;;;;;;;;;;5056100;28;20210;-65
2023/05/12 00:04:45;;;;;;;5.57;5.07;;;;;;;;;;5066759;28;20202;-63
2023/05/12 00:07:12;;;;;;;5.43;4.93;;;;;;;;;;5069232;28;20224;-64
2023/05/12 00:09:40;;;;;;;5.40;4.90;;;;;;;;;;5061095;28;20225;-64
2023/05/12 00:12:09;;;;;;;6.13;5.53;;;;;;;;;;5069705;28;20561;-63
2023/05/12 00:14:37;;;;;;;5.63;4.97;;;;;;;;;;5065153;28;20290;-64
2023/05/12 00:17:05;;;;;;;6.00;4.73;;;;;;;;;;5063622;28;20229;-65
2023/05/12 00:19:34;;;;;;;5.17;4.77;;;;;;;;;;5063490;28;20255;-65
2023/05/12 00:22:02;;;;;;;15.93;9.23;;;;;;;;;;5067454;28;20202;-64
2023/05/12 00:24:29;;;;;;;29.17;16.67;;;;;;;;;;5063047;28;20201;-64
2023/05/12 00:26:57;;;;;;;35.50;19.97;;;;;;;;;;5072121;28;20253;-63
2023/05/12 00:29:25;;;;;;;8.63;6.23;;;;;;;;;;5064036;28;20221;-64
2023/05/12 00:31:54;;;;;;;5.80;4.73;;;;;;;;;;5060084;28;20692;-63
2023/05/12 00:34:22;;;;;;;5.60;5.00;;;;;;;;;;5055251;28;20197;-64
2023/05/12 00:36:50;;;;;;;6.47;5.83;;;;;;;;;;5055809;28;20663;-63
2023/05/12 00:39:17;;;;;;;6.73;4.53;;;;;;;;;;5065841;28;20205;-64
2023/05/12 00:41:46;;;;;;;6.63;4.90;;;;;;;;;;5058438;28;20205;-64
2023/05/12 00:44:14;;;;;;;5.43;4.70;;;;;;;;;;5064577;28;20296;-65
2023/05/12 00:46:42;;;;;;;5.23;4.73;;;;;;;;;;5064054;28;20324;-64
2023/05/12 00:49:09;;;;;;;4.77;4.10;;;;;;;;;;5069000;28;20257;-64
2023/05/12 00:51:37;;;;;;;5.27;4.77;;;;;;;;;;5050807;28;20232;-64
2023/05/12 00:54:04;;;;;;;4.90;4.47;;;;;;;;;;5059493;28;20222;-65
2023/05/12 00:56:38;;;;;;;4.97;4.57;;;;;;;;;;5058246;28;20548;-62
2023/05/12 00:59:06;;;;;;;5.20;4.70;;;;;;;;;;5063577;28;20202;-64
2023/05/12 01:01:36;;;;;;;5.87;4.67;;;;;;;;;;5060187;28;20206;-64
2023/05/12 01:04:05;;;;;;;5.10;4.60;;;;;;;;;;5063697;28;20251;-64
2023/05/12 01:06:38;;;;;;;5.63;5.13;;;;;;;;;;5057534;28;20237;-64
2023/05/12 01:09:05;;;;;;;5.50;5.00;;;;;;;;;;5054154;28;20574;-65
2023/05/12 01:11:33;;;;;;;7.03;5.93;;;;;;;;;;5082347;28;20205;-62
2023/05/12 01:14:00;;;;;;;17.20;10.37;;;;;;;;;;5078844;28;20197;-63
2023/05/12 01:16:31;;;;;;;17.87;10.30;;;;;;;;;;5060459;28;20278;-64
2023/05/12 01:18:59;;;;;;;9.33;7.37;;;;;;;;;;5052831;28;20721;-64
2023/05/12 01:21:27;;;;;;;5.90;5.10;;;;;;;;;;5057560;28;20205;-64
2023/05/12 01:23:57;;;;;;;6.50;5.80;;;;;;;;;;5051832;28;20296;-64
2023/05/12 01:26:25;;;;;;;7.03;5.50;;;;;;;;;;5052191;28;20229;-65
2023/05/12 01:28:54;;;;;;;5.33;4.83;;;;;;;;;;5053601;28;20259;-63
2023/05/12 01:31:22;;;;;;;5.73;5.03;;;;;;;;;;5055507;28;20220;-64
2023/05/12 01:33:51;;;;;;;4.97;4.47;;;;;;;;;;5052786;28;20573;-64
2023/05/12 01:36:20;;;;;;;5.57;4.97;;;;;;;;;;5064474;28;20229;-64
2023/05/12 01:38:49;;;;;;;5.33;4.83;;;;;;;;;;5053785;28;20213;-64
2023/05/12 01:41:16;;;;;;;6.10;5.10;;;;;;;;;;5054986;28;20664;-64
2023/05/12 01:43:44;;;;;;;5.63;5.13;;;;;;;;;;5057131;28;20245;-63
2023/05/12 01:46:11;;;;;;;5.50;5.00;;;;;;;;;;5059567;28;20209;-64
2023/05/12 01:48:40;;;;;;;5.43;4.90;;;;;;;;;;5054315;28;20304;-64
2023/05/12 01:51:08;;;;;;;5.80;5.30;;;;;;;;;;5054545;28;20201;-64
2023/05/12 01:53:36;;;;;;;7.47;5.00;;;;;;;;;;5049083;28;20288;-63
2023/05/12 01:56:03;;;;;;;6.37;4.80;;;;;;;;;;5053739;28;20299;-63
2023/05/12 01:58:31;;;;;;;6.13;5.53;;;;;;;;;;5046333;28;20271;-63
2023/05/12 02:00:58;;;;;;;40.73;21.50;;;;;;;;;;5051835;28;20616;-63
2023/05/12 02:03:26;;;;;;;10.20;6.70;;;;;;;;;;5053203;28;20224;-64
2023/05/12 02:05:53;;;;;;;7.43;5.03;;;;;;;;;;5052588;28;20209;-64
2023/05/12 02:08:21;;;;;;;5.50;5.00;;;;;;;;;;5061262;28;20198;-64
2023/05/12 02:10:50;;;;;;;4.97;4.47;;;;;;;;;;5051071;28;20265;-64
2023/05/12 02:13:17;;;;;;;5.80;5.23;;;;;;;;;;5046986;28;20669;-64
2023/05/12 02:15:44;;;;;;;6.13;4.97;;;;;;;;;;5056711;28;20220;-64
2023/05/12 02:18:12;;;;;;;5.60;5.10;;;;;;;;;;5054800;28;20220;-64
2023/05/12 02:20:40;;;;;;;4.97;4.57;;;;;;;;;;5062912;28;20267;-62
2023/05/12 02:23:08;;;;;;;4.83;4.33;;;;;;;;;;5062112;28;20304;-64
2023/05/12 02:25:36;;;;;;;5.20;4.70;;;;;;;;;;5057295;28;20304;-65
2023/05/12 02:28:03;;;;;;;6.63;4.30;;;;;;;;;;5056411;28;20225;-64
2023/05/12 02:30:30;;;;;;;4.90;4.50;;;;;;;;;;5054278;28;20669;-62
2023/05/12 02:32:58;;;;;;;6.40;4.93;;;;;;;;;;5049542;28;20202;-64
2023/05/12 02:35:25;;;;;;;4.93;4.43;;;;;;;;;;5049773;28;20243;-63
2023/05/12 02:37:52;;;;;;;5.93;4.47;;;;;;;;;;5048192;28;20287;-63
2023/05/12 02:40:21;;;;;;;5.70;5.10;;;;;;;;;;5048499;28;20213;-64
2023/05/12 02:42:50;;;;;;;5.77;5.27;;;;;;;;;;5053531;28;20208;-63
2023/05/12 02:45:18;;;;;;;6.27;5.63;;;;;;;;;;5054810;28;20299;-64
2023/05/12 02:47:45;;;;;;;6.10;5.50;;;;;;;;;;5051902;28;20641;-63
2023/05/12 02:50:12;;;;;;;7.10;6.40;;;;;;;;;;5052788;28;20225;-64
2023/05/12 02:52:42;;;;;;;6.20;5.60;;;;;;;;;;5058541;28;20255;-64
2023/05/12 02:55:10;;;;;;;6.67;6.07;;;;;;;;;;5055865;28;20653;-64
2023/05/12 02:57:39;;;;;;;7.13;6.00;;;;;;;;;;5056422;28;20222;-64
2023/05/12 03:00:07;;;;;;;7.67;6.87;;;;;;;;;;5058489;28;20209;-64
2023/05/12 03:02:38;;;;;;;12.50;7.43;;;;;;;;;;5055499;28;20309;-64
2023/05/12 03:05:07;;;;;;;6.17;5.57;;;;;;;;;;5050122;28;20248;-64
2023/05/12 03:07:36;;;;;;;7.87;4.87;;;;;;;;;;5059887;28;20315;-64
2023/05/12 03:10:05;;;;;;;5.47;4.87;;;;;;;;;;5060685;28;20221;-64
2023/05/12 03:12:32;;;;;;;5.00;4.60;;;;;;;;;;5065766;28;20211;-64
2023/05/12 03:14:59;;;;;;;5.20;4.70;;;;;;;;;;5040160;28;20297;-64
2023/05/12 03:17:27;;;;;;;5.97;4.50;;;;;;;;;;5057988;28;20222;-63
2023/05/12 03:19:54;;;;;;;5.57;4.63;;;;;;;;;;5055236;28;20209;-63
2023/05/12 03:22:21;;;;;;;6.70;4.70;;;;;;;;;;5055015;28;20296;-63
2023/05/12 03:24:49;;;;;;;5.53;4.37;;;;;;;;;;5070187;28;20209;-63
2023/05/12 03:27:16;;;;;;;5.20;4.70;;;;;;;;;;5053279;28;20376;-64
2023/05/12 03:29:45;;;;;;;5.20;4.70;;;;;;;;;;5063184;28;20464;-64
2023/05/12 03:32:12;;;;;;;4.80;4.40;;;;;;;;;;5052282;28;20323;-64
2023/05/12 03:34:40;;;;;;;4.83;4.43;;;;;;;;;;5068876;28;20293;-64
2023/05/12 03:37:07;;;;;;;5.10;4.60;;;;;;;;;;5058711;28;20319;-64
2023/05/12 03:39:35;;;;;;;5.00;4.50;;;;;;;;;;5056575;28;20206;-63
2023/05/12 03:42:03;;;;;;;5.30;4.63;;;;;;;;;;5060772;28;20468;-64
2023/05/12 03:44:31;;;;;;;4.80;4.40;;;;;;;;;;5074031;28;20202;-63
2023/05/12 03:46:58;;;;;;;5.00;4.50;;;;;;;;;;5054885;28;20230;-63
2023/05/12 03:49:25;;;;;;;4.60;4.20;;;;;;;;;;5055381;28;20356;-63
2023/05/12 03:51:53;;;;;;;4.90;4.50;;;;;;;;;;5056445;28;20201;-65
2023/05/12 03:54:20;;;;;;;6.07;5.03;;;;;;;;;;5055942;28;20242;-65
2023/05/12 03:56:47;;;;;;;5.43;4.93;;;;;;;;;;5057045;28;20267;-64
2023/05/12 03:59:16;;;;;;;5.90;5.40;;;;;;;;;;5061588;28;20274;-64
2023/05/12 04:01:43;;;;;;;7.73;6.30;;;;;;;;;;5077480;28;20267;-65
2023/05/12 04:04:10;;;;;;;20.03;12.83;;;;;;;;;;5063703;28;20205;-63
2023/05/12 04:06:38;;;;;;;10.00;6.50;;;;;;;;;;5063588;28;20217;-63
2023/05/12 04:09:05;;;;;;;36.60;23.70;;;;;;;;;;5064585;28;20201;-65
2023/05/12 04:11:33;;;;;;;13.07;10.23;;;;;;;;;;5066596;28;20814;-65
2023/05/12 04:14:01;;;;;;;6.70;5.77;;;;;;;;;;5062826;28;20202;-65
2023/05/12 04:16:29;;;;;;;7.30;5.30;;;;;;;;;;5076209;28;20253;-67
2023/05/12 04:18:56;;;;;;;8.00;7.10;;;;;;;;;;5057273;28;20218;-64
2023/05/12 04:21:24;;;;;;;8.13;6.47;;;;;;;;;;5051038;28;20346;-64
2023/05/12 04:23:51;;;;;;;8.30;6.30;;;;;;;;;;5067299;28;20202;-65
2023/05/12 04:26:19;;;;;;;6.87;6.27;;;;;;;;;;5063433;28;20225;-65
2023/05/12 04:28:47;;;;;;;6.47;5.60;;;;;;;;;;5049599;28;20233;-64
2023/05/12 04:31:15;;;;;;;6.50;5.90;;;;;;;;;;5058755;28;20253;-63
2023/05/12 04:33:42;;;;;;;6.43;5.40;;;;;;;;;;5052868;28;20316;-64
2023/05/12 04:36:13;;;;;;;6.80;5.53;;;;;;;;;;5053573;28;20223;-64
2023/05/12 04:38:40;;;;;;;7.43;6.10;;;;;;;;;;5057409;28;20244;-64
2023/05/12 04:41:08;;;;;;;7.30;6.07;;;;;;;;;;5058593;28;20203;-64
2023/05/12 04:43:37;;;;;;;10.30;7.53;;;;;;;;;;5056917;28;20240;-64
2023/05/12 04:46:07;;;;;;;18.30;10.33;;;;;;;;;;5063797;28;20280;-64
2023/05/12 04:48:40;;;;;;;21.50;12.33;;;;;;;;;;5059711;28;20275;-64
2023/05/12 04:51:08;;;;;;;17.73;12.53;;;;;;;;;;5057756;28;20642;-64
2023/05/12 04:53:35;;;;;;;8.90;8.00;;;;;;;;;;5059495;28;20637;-64
2023/05/12 04:56:03;;;;;;;7.40;6.70;;;;;;;;;;5059296;28;20197;-64
2023/05/12 04:58:30;;;;;;;7.73;6.93;;;;;;;;;;5054565;28;20313;-63
2023/05/12 05:00:57;;;;;;;7.40;6.70;;;;;;;;;;5050481;28;20283;-64
2023/05/12 05:03:26;;;;;;;6.83;6.03;;;;;;;;;;5057184;28;20259;-63
2023/05/12 05:05:53;;;;;;;6.90;6.30;;;;;;;;;;5063235;28;20216;-63
2023/05/12 05:08:21;;;;;;;7.03;5.93;;;;;;;;;;5055607;28;20202;-63
2023/05/12 05:10:48;;;;;;;6.90;6.20;;;;;;;;;;5054655;28;20233;-64
2023/05/12 05:13:15;;;;;;;7.77;6.03;;;;;;;;;;5054355;28;20301;-64
2023/05/12 05:15:52;;;;;;;9.63;7.03;;;;;;;;;;5052303;28;20198;-65
2023/05/12 05:18:20;;;;;;;7.70;6.50;;;;;;;;;;5052971;28;20214;-64
2023/05/12 05:20:50;;;;;;;7.60;6.90;;;;;;;;;;5066752;28;20693;-64
2023/05/12 05:23:24;;;;;;;7.20;6.50;;;;;;;;;;5052774;28;20209;-65
2023/05/12 05:25:52;;;;;;;8.00;7.20;;;;;;;;;;5061299;28;20221;-63
2023/05/12 05:28:19;;;;;;;7.60;6.90;;;;;;;;;;5066473;28;20667;-64
2023/05/12 05:30:47;;;;;;;9.13;7.30;;;;;;;;;;5070482;28;20308;-64
2023/05/12 05:33:15;;;;;;;9.13;7.60;;;;;;;;;;5065269;28;20282;-64
2023/05/12 05:35:44;;;;;;;9.83;7.93;;;;;;;;;;5066378;28;20288;-64
2023/05/12 05:38:12;;;;;;;11.30;8.67;;;;;;;;;;5066707;28;20229;-64
2023/05/12 05:40:40;;;;;;;8.67;7.10;;;;;;;;;;5067458;28;20258;-64
2023/05/12 05:43:18;;;;;;;8.30;7.40;;;;;;;;;;5071151;28;20627;-63
2023/05/12 05:45:48;;;;;;;8.10;7.30;;;;;;;;;;5062915;28;20698;-65
2023/05/12 05:48:17;;;;;;;8.07;7.27;;;;;;;;;;5057934;28;20663;-63
2023/05/12 05:50:45;;;;;;;8.00;7.20;;;;;;;;;;5058546;28;20229;-63
2023/05/12 05:53:13;;;;;;;8.30;7.50;;;;;;;;;;5059292;28;20205;-64
2023/05/12 05:55:41;;;;;;;8.63;7.27;;;;;;;;;;5058704;28;20202;-64
2023/05/12 05:58:09;;;;;;;8.10;7.03;;;;;;;;;;5046526;28;20218;-64
2023/05/12 06:00:36;;;;;;;7.50;6.70;;;;;;;;;;5068245;28;20206;-64
2023/05/12 06:03:05;;;;;;;7.23;6.53;;;;;;;;;;5057302;28;20202;-64
2023/05/12 06:05:34;;;;;;;6.40;5.80;;;;;;;;;;5065676;28;20216;-64
2023/05/12 06:08:03;;;;;;;7.10;6.40;;;;;;;;;;5061212;28;20230;-64
2023/05/12 06:10:32;;;;;;;7.63;6.60;;;;;;;;;;5057811;28;20746;-64
2023/05/12 06:12:59;;;;;;;6.60;5.90;;;;;;;;;;5066507;28;20201;-64
2023/05/12 06:15:28;;;;;;;7.27;6.17;;;;;;;;;;5055354;28;20272;-64
2023/05/12 06:17:56;;;;;;;7.13;6.43;;;;;;;;;;5061426;28;20272;-65
2023/05/12 06:20:24;;;;;;;6.83;6.13;;;;;;;;;;5068147;28;20202;-64
2023/05/12 06:22:51;;;;;;;6.53;5.93;;;;;;;;;;5062697;28;20948;-63
2023/05/12 06:25:18;;;;;;;6.20;5.70;;;;;;;;;;5075881;28;20201;-64
2023/05/12 06:27:46;;;;;;;7.13;6.43;;;;;;;;;;5078525;28;20300;-64
2023/05/12 06:30:14;;;;;;;6.83;6.23;;;;;;;;;;5062332;28;20804;-65
2023/05/12 06:32:42;;;;;;;9.23;7.40;;;;;;;;;;5063339;28;20287;-64
2023/05/12 06:35:10;;;;;;;11.60;9.03;;;;;;;;;;5067845;28;20572;-65
2023/05/12 06:37:37;;;;;;;6.07;5.50;;;;;;;;;;5066062;28;20256;-64
2023/05/12 06:40:06;;;;;;;6.00;5.20;;;;;;;;;;5056553;28;20202;-64
2023/05/12 06:42:34;;;;;;;10.87;6.87;;;;;;;;;;5057707;28;20213;-63
2023/05/12 06:45:02;;;;;;;5.93;5.43;;;;;;;;;;5039774;28;20202;-65
2023/05/12 06:47:29;;;;;;;5.77;5.17;;;;;;;;;;5049141;28;20268;-64
2023/05/12 06:49:57;;;;;;;6.30;5.70;;;;;;;;;;5067498;28;20198;-65
2023/05/12 06:52:25;;;;;;;8.33;7.53;;;;;;;;;;5069725;28;20592;-64
2023/05/12 06:54:52;;;;;;;5.43;4.97;;;;;;;;;;5068439;28;20672;-64
2023/05/12 06:57:20;;;;;;;5.90;5.40;;;;;;;;;;5063174;28;20224;-65
2023/05/12 06:59:47;;;;;;;6.20;5.70;;;;;;;;;;5057108;28;20288;-65
2023/05/12 07:02:15;;;;;;;4.03;3.20;;;;;;;;;;5049962;28;20201;-65
2023/05/12 07:04:43;;;;;;;4.20;3.80;;;;;;;;;;5055515;28;20201;-64
2023/05/12 07:07:10;;;;;;;3.85;3.55;;;;;;;;;;5044263;28;20261;-65
2023/05/12 07:09:39;;;;;;;3.93;3.63;;;;;;;;;;5059370;28;20290;-65
2023/05/12 07:12:08;;;;;;;2.10;2.00;;;;;;;;;;5056162;28;20221;-64
2023/05/12 07:14:35;;;;;;;2.95;2.75;;;;;;;;;;5051204;28;20232;-65
2023/05/12 07:17:02;;;;;;;2.40;2.20;;;;;;;;;;5045841;28;20228;-64
2023/05/12 07:19:30;;;;;;;15.32;8.10;;;;;;;;;;5059946;28;20229;-64
2023/05/12 07:21:57;;;;;;;3.38;3.08;;;;;;;;;;5058476;28;20205;-65
2023/05/12 07:24:26;;;;;;;2.25;1.65;;;;;;;;;;5069459;28;20217;-64
2023/05/12 07:26:54;;;;;;;2.28;1.95;;;;;;;;;;5058265;28;20259;-63
2023/05/12 07:29:21;;;;;;;4.30;3.53;;;;;;;;;;5057489;28;20198;-64
2023/05/12 07:31:48;;;;;;;2.63;2.42;;;;;;;;;;5053150;28;20698;-63
2023/05/12 07:34:17;;;;;;;1.80;1.70;;;;;;;;;;5047566;28;20205;-64
2023/05/12 07:36:44;;;;;;;1.92;1.80;;;;;;;;;;5056994;28;21184;-65
2023/05/12 07:39:13;;;;;;;1.95;1.85;;;;;;;;;;5061594;28;20255;-66
2023/05/12 07:41:41;;;;;;;1.50;1.50;;;;;;;;;;5060456;28;20242;-64
2023/05/12 07:44:08;;;;;;;1.80;1.70;;;;;;;;;;5061628;28;20237;-64
2023/05/12 07:46:35;;;;;;;2.03;1.92;;;;;;;;;;5054538;28;20226;-64
2023/05/12 07:49:03;;;;;;;2.10;2.00;;;;;;;;;;5064822;28;20208;-64
2023/05/12 07:51:30;;;;;;;1.90;1.80;;;;;;;;;;5058109;28;20465;-64
2023/05/12 07:53:59;;;;;;;1.70;1.60;;;;;;;;;;5054214;28;20209;-65
2023/05/12 07:56:27;;;;;;;3.08;2.40;;;;;;;;;;5057880;28;20221;-65
2023/05/12 07:58:55;;;;;;;26.48;14.15;;;;;;;;;;5059806;28;20198;-64
2023/05/12 08:01:22;;;;;;;1.67;1.58;;;;;;;;;;5057388;28;20206;-65
2023/05/12 08:03:50;;;;;;;2.03;1.92;;;;;;;;;;5057965;28;20205;-64
2023/05/12 08:06:18;;;;;;;3.45;2.67;;;;;;;;;;5053187;28;20222;-63
2023/05/12 08:08:45;;;;;;;2.55;1.80;;;;;;;;;;5054659;28;20233;-64
2023/05/12 08:11:13;;;;;;;1.77;1.67;;;;;;;;;;5061114;28;20233;-64
2023/05/12 08:13:40;;;;;;;2.00;1.90;;;;;;;;;;5058327;28;20204;-65
2023/05/12 08:16:07;;;;;;;2.75;2.55;;;;;;;;;;5055594;28;20256;-65
2023/05/12 08:18:35;;;;;;;1.90;1.80;;;;;;;;;;5053184;28;20277;-63
2023/05/12 08:21:04;;;;;;;1.88;1.77;;;;;;;;;;5059390;28;20295;-63
2023/05/12 08:23:32;;;;;;;2.05;1.65;;;;;;;;;;5058398;28;20263;-63
2023/05/12 08:26:01;;;;;;;2.65;1.70;;;;;;;;;;5052355;28;20206;-64
2023/05/12 08:28:29;;;;;;;2.25;2.05;;;;;;;;;;5057404;28;20233;-63
2023/05/12 08:30:57;;;;;;;1.83;1.73;;;;;;;;;;5060302;28;20229;-64
2023/05/12 08:33:25;;;;;;;1.70;1.60;;;;;;;;;;5055898;28;20293;-64
2023/05/12 08:35:52;;;;;;;2.63;1.73;;;;;;;;;;5061221;28;20317;-62
2023/05/12 08:38:21;;;;;;;2.70;2.00;;;;;;;;;;5054753;28;20229;-63
2023/05/12 08:41:05;;;;;;;2.05;1.95;;;;;;;;;;5058916;28;20280;-63
2023/05/12 08:43:59;;;;;;;2.67;2.47;;;;;;;;;;5057020;28;20689;-64
2023/05/12 08:46:31;;;;;;;2.03;1.90;;;;;;;;;;5049995;28;20836;-66
2023/05/12 08:48:58;;;;;;;1.88;1.75;;;;;;;;;;5063873;28;20209;-64
2023/05/12 08:51:27;;;;;;;6.43;5.38;;;;;;;;;;5065114;28;20651;-65
2023/05/12 08:53:55;;;;;;;2.72;2.53;;;;;;;;;;5062027;28;20274;-64
2023/05/12 08:56:23;;;;;;;2.95;1.88;;;;;;;;;;5054549;28;20295;-64
2023/05/12 08:58:54;;;;;;;2.10;2.00;;;;;;;;;;5058327;28;20202;-65
2023/05/12 09:01:22;;;;;;;2.40;2.30;;;;;;;;;;5058912;28;20222;-65
2023/05/12 09:03:51;;;;;;;3.03;1.97;;;;;;;;;;5057301;28;20201;-65
2023/05/12 09:06:19;;;;;;;2.40;2.20;;;;;;;;;;5048185;28;20371;-63
2023/05/12 09:08:46;;;;;;;2.70;2.50;;;;;;;;;;5064282;28;20214;-64
2023/05/12 09:11:14;;;;;;;2.13;2.03;;;;;;;;;;5041508;28;20225;-64
2023/05/12 09:14:01;;;;;;;2.40;2.30;;;;;;;;;;5051103;28;20579;-64
2023/05/12 09:16:30;;;;;;;3.22;2.20;;;;;;;;;;5056339;28;20278;-64
2023/05/12 09:18:58;;;;;;;2.40;2.30;;;;;;;;;;5055116;28;20644;-63
2023/05/12 09:21:26;;;;;;;2.03;1.92;;;;;;;;;;5055247;28;20727;-64
2023/05/12 09:23:56;;;;;;;2.42;2.22;;;;;;;;;;5057228;28;20259;-65
2023/05/12 09:26:24;;;;;;;3.40;2.28;;;;;;;;;;5058016;28;20214;-65
2023/05/12 09:28:52;;;;;;;2.50;2.40;;;;;;;;;;5051646;28;20670;-64
2023/05/12 09:31:24;;;;;;;4.18;3.78;;;;;;;;;;5059798;28;20664;-64
2023/05/12 09:33:52;;;;;;;2.70;2.50;;;;;;;;;;5064198;28;20205;-64
2023/05/12 09:36:23;;;;;;;2.33;2.13;;;;;;;;;;5066801;28;20225;-63
2023/05/12 09:39:04;;;;;;;2.40;2.20;;;;;;;;;;5075242;28;20197;-64
2023/05/12 09:41:34;;;;;;;2.40;2.20;;;;;;;;;;5054604;28;20209;-63
2023/05/12 09:44:02;;;;;;;3.92;3.53;;;;;;;;;;5050801;28;20210;-67
2023/05/12 09:46:29;;;;;;;2.63;2.20;;;;;;;;;;5044075;28;21486;-64
2023/05/12 09:48:57;;;;;;;2.28;2.00;;;;;;;;;;5063760;28;20230;-63
2023/05/12 09:51:28;;;;;;;5.07;3.67;;;;;;;;;;5056203;28;20217;-63
2023/05/12 09:53:55;;;;;;;2.80;2.60;;;;;;;;;;5057726;28;20295;-64
2023/05/12 09:56:24;;;;;;;3.00;2.80;;;;;;;;;;5056221;28;20217;-65
2023/05/12 09:58:53;;;;;;;2.70;2.50;;;;;;;;;;5041117;28;20649;-63
2023/05/12 10:01:21;;;;;;;2.58;2.47;;;;;;;;;;5056579;28;20206;-64
2023/05/12 10:03:54;;;;;;;3.03;2.83;;;;;;;;;;5054596;28;20205;-63
2023/05/12 10:06:30;;;;;;;3.05;2.85;;;;;;;;;;5054461;28;20234;-63
2023/05/12 10:08:57;;;;;;;2.80;2.60;;;;;;;;;;5052910;28;20283;-63
2023/05/12 10:11:25;;;;;;;2.30;2.20;;;;;;;;;;5048439;28;20265;-65
2023/05/12 10:13:52;;;;;;;2.55;2.30;;;;;;;;;;5043435;28;20229;-64
2023/05/12 10:16:21;;;;;;;2.63;2.53;;;;;;;;;;5047080;28;20295;-64
2023/05/12 10:18:49;;;;;;;2.85;2.65;;;;;;;;;;5051704;28;20221;-64
2023/05/12 10:21:16;;;;;;;2.97;2.78;;;;;;;;;;5044820;28;20312;-61
2023/05/12 10:23:44;;;;;;;3.28;2.97;;;;;;;;;;5040917;28;20298;-64
2023/05/12 10:26:12;;;;;;;3.72;2.55;;;;;;;;;;5043836;28;20296;-64
2023/05/12 10:28:41;;;;;;;2.13;2.03;;;;;;;;;;5047594;28;20201;-63
2023/05/12 10:31:09;;;;;;;1.90;1.80;;;;;;;;;;5056007;28;20205;-63
2023/05/12 10:33:38;;;;;;;3.87;2.37;;;;;;;;;;5054876;28;20213;-63
2023/05/12 10:36:15;;;;;;;2.23;2.07;;;;;;;;;;5060834;28;20279;-64
2023/05/12 10:38:43;;;;;;;1.58;1.50;;;;;;;;;;5052687;28;20553;-63
2023/05/12 10:41:11;;;;;;;1.67;1.52;;;;;;;;;;5054660;28;20640;-64
2023/05/12 10:43:43;;;;;;;1.95;1.70;;;;;;;;;;5052759;28;20247;-64
2023/05/12 10:46:18;;;;;;;2.25;1.77;;;;;;;;;;5057713;28;20205;-63
2023/05/12 10:48:53;;;;;;;1.90;1.80;;;;;;;;;;5050988;28;20641;-65
2023/05/12 10:51:22;;;;;;;1.92;1.83;;;;;;;;;;5054019;28;20318;-64
2023/05/12 10:53:56;;;;;;;1.98;1.88;;;;;;;;;;5046948;28;20206;-63
2023/05/12 10:56:24;;;;;;;1.42;1.42;;;;;;;;;;5061935;28;20309;-64
2023/05/12 10:59:11;;;;;;;2.05;1.95;;;;;;;;;;5057305;28;20209;-63
2023/05/12 11:01:40;;;;;;;2.22;2.10;;;;;;;;;;5058458;28;20214;-63
2023/05/12 11:04:14;;;;;;;2.58;2.05;;;;;;;;;;5062540;28;20817;-62
2023/05/12 11:06:43;;;;;;;3.38;3.10;;;;;;;;;;5063415;28;20225;-65
2023/05/12 11:09:11;;;;;;;2.17;1.98;;;;;;;;;;5058220;28;20205;-64
2023/05/12 11:11:39;;;;;;;3.35;1.90;;;;;;;;;;5059271;28;20275;-64
2023/05/12 11:14:08;;;;;;;2.55;2.35;;;;;;;;;;5059636;28;20201;-64
2023/05/12 11:16:41;;;;;;;2.65;2.45;;;;;;;;;;5060781;28;20276;-64
2023/05/12 11:19:09;;;;;;;2.45;2.25;;;;;;;;;;5057391;28;20201;-63
2023/05/12 11:21:36;;;;;;;3.10;2.90;;;;;;;;;;5057722;28;20213;-65
2023/05/12 11:24:04;;;;;;;3.70;3.40;;;;;;;;;;5054920;28;20217;-65
2023/05/12 11:26:33;;;;;;;3.72;3.33;;;;;;;;;;5056191;28;20237;-65
2023/05/12 11:29:03;;;;;;;3.80;3.50;;;;;;;;;;5063158;28;20259;-64
2023/05/12 11:31:31;;;;;;;4.68;4.18;;;;;;;;;;5058256;28;20268;-65
2023/05/12 11:34:07;;;;;;;4.32;3.92;;;;;;;;;;5056794;28;20206;-64
2023/05/12 11:36:41;;;;;;;3.70;3.40;;;;;;;;;;5048087;28;20534;-63
2023/05/12 11:39:19;;;;;;;3.53;3.22;;;;;;;;;;5049731;28;20212;-64
2023/05/12 11:41:47;;;;;;;4.05;2.70;;;;;;;;;;5049360;28;20776;-65
2023/05/12 11:44:17;;;;;;;3.33;2.85;;;;;;;;;;5057119;28;20228;-63
2023/05/12 11:46:57;;;;;;;2.70;2.50;;;;;;;;;;5058773;28;20236;-63
2023/05/12 11:49:25;;;;;;;2.65;2.45;;;;;;;;;;5055447;28;20228;-64
2023/05/12 11:51:53;;;;;;;3.60;2.58;;;;;;;;;;5049831;28;20244;-66
2023/05/12 11:54:21;;;;;;;2.40;2.30;;;;;;;;;;5058525;28;20213;-64
2023/05/12 11:56:50;;;;;;;2.33;2.22;;;;;;;;;;5055119;28;20213;-64
2023/05/12 11:59:33;;;;;;;2.53;2.10;;;;;;;;;;5049003;28;20559;-64
2023/05/12 12:02:02;;;;;;;1.85;1.75;;;;;;;;;;5064140;28;20216;-64
2023/05/12 12:04:40;;;;;;;3.13;2.83;;;;;;;;;;5061813;28;20289;-65
2023/05/12 12:07:08;;;;;;;2.40;2.20;;;;;;;;;;5056992;28;20253;-65
2023/05/12 12:09:39;;;;;;;1.80;1.70;;;;;;;;;;5053354;28;20608;-64
2023/05/12 12:12:08;;;;;;;1.98;1.88;;;;;;;;;;5064487;28;20723;-63
2023/05/12 12:14:40;;;;;;;3.38;2.20;;;;;;;;;;5064545;28;20291;-64
2023/05/12 12:17:07;;;;;;;2.58;2.30;;;;;;;;;;5050457;28;20224;-64
2023/05/12 12:19:34;;;;;;;6.32;4.57;;;;;;;;;;5047899;28;20685;-66
2023/05/12 12:22:02;;;;;;;1.23;1.23;;;;;;;;;;5060186;28;20256;-64
2023/05/12 12:24:29;;;;;;;1.80;1.70;;;;;;;;;;5062527;28;20218;-65
2023/05/12 12:26:57;;;;;;;2.10;2.00;;;;;;;;;;5051185;28;20233;-64
2023/05/12 12:29:27;;;;;;;1.70;1.60;;;;;;;;;;5061623;28;20213;-65
2023/05/12 12:31:54;;;;;;;1.35;1.35;;;;;;;;;;5056456;28;20222;-64
2023/05/12 12:34:22;;;;;;;1.60;1.50;;;;;;;;;;5053037;28;20202;-65
2023/05/12 12:36:49;;;;;;;1.40;1.40;;;;;;;;;;5055437;28;20336;-65
2023/05/12 12:39:16;;;;;;;1.13;1.13;;;;;;;;;;5061082;28;20248;-64
2023/05/12 12:41:46;;;;;;;1.63;1.63;;;;;;;;;;5057428;28;20217;-64
2023/05/12 12:44:14;;;;;;;1.50;1.40;;;;;;;;;;5054525;28;20689;-64
2023/05/12 12:46:41;;;;;;;1.33;1.33;;;;;;;;;;5049550;28;21298;-66
2023/05/12 12:49:09;;;;;;;2.28;1.80;;;;;;;;;;5057799;28;20304;-65
2023/05/12 12:51:36;;;;;;;0.90;0.90;;;;;;;;;;5041761;28;20205;-64
2023/05/12 12:54:13;;;;;;;14.30;8.10;;;;;;;;;;5052542;28;20659;-64
2023/05/12 12:56:40;;;;;;;1.27;1.17;;;;;;;;;;5054598;28;20229;-63
2023/05/12 12:59:08;;;;;;;2.40;1.42;;;;;;;;;;5060392;28;20228;-66
2023/05/12 13:01:35;;;;;;;1.05;1.05;;;;;;;;;;5050506;28;20222;-64
2023/05/12 13:04:03;;;;;;;2.75;1.20;;;;;;;;;;5055834;28;20220;-65
2023/05/12 13:06:31;;;;;;;1.25;1.25;;;;;;;;;;5053866;28;20339;-64
2023/05/12 13:08:58;;;;;;;4.22;1.42;;;;;;;;;;5050652;28;20251;-65
2023/05/12 13:11:26;;;;;;;1.80;1.70;;;;;;;;;;5055329;28;20229;-65
2023/05/12 13:13:53;;;;;;;1.27;1.27;;;;;;;;;;5047374;28;20719;-64
2023/05/12 13:16:21;;;;;;;1.70;1.60;;;;;;;;;;5049138;28;20312;-63
2023/05/12 13:18:48;;;;;;;1.60;1.50;;;;;;;;;;5058823;28;20284;-65
2023/05/12 13:21:17;;;;;;;2.35;2.17;;;;;;;;;;5049876;28;20205;-63
2023/05/12 13:23:44;;;;;;;1.90;1.80;;;;;;;;;;5059754;28;20220;-64
2023/05/12 13:26:12;;;;;;;2.22;2.13;;;;;;;;;;5054556;28;20300;-64
2023/05/12 13:28:39;;;;;;;2.90;2.65;;;;;;;;;;5060103;28;20259;-64
2023/05/12 13:31:07;;;;;;;2.15;2.05;;;;;;;;;;5052536;28;20753;-65
2023/05/12 13:33:34;;;;;;;2.92;2.60;;;;;;;;;;5052784;28;20225;-63
2023/05/12 13:36:02;;;;;;;2.10;2.00;;;;;;;;;;5050689;28;20202;-65
2023/05/12 13:38:29;;;;;;;3.53;2.25;;;;;;;;;;5047457;28;20213;-65
2023/05/12 13:40:57;;;;;;;2.45;2.00;;;;;;;;;;5047273;28;20206;-64
2023/05/12 13:43:24;;;;;;;2.20;2.10;;;;;;;;;;5048969;28;20229;-65
2023/05/12 13:45:51;;;;;;;2.53;2.33;;;;;;;;;;5050703;28;20677;-65
2023/05/12 13:48:20;;;;;;;2.53;2.42;;;;;;;;;;5042455;28;20714;-65
2023/05/12 13:50:47;;;;;;;2.70;2.50;;;;;;;;;;5037720;28;20263;-65
2023/05/12 13:53:15;;;;;;;2.35;2.25;;;;;;;;;;5027934;28;20237;-65
2023/05/12 13:55:43;;;;;;;2.70;2.50;;;;;;;;;;5039266;28;20591;-64
2023/05/12 13:58:11;;;;;;;2.30;2.20;;;;;;;;;;5036000;28;20230;-64
2023/05/12 14:00:38;;;;;;;2.42;2.22;;;;;;;;;;5055513;28;20289;-64
2023/05/12 14:03:07;;;;;;;2.08;1.98;;;;;;;;;;5057448;28;20217;-64
2023/05/12 14:05:34;;;;;;;4.30;1.90;;;;;;;;;;5057748;28;20291;-64
2023/05/12 14:08:02;;;;;;;2.30;1.90;;;;;;;;;;5061865;28;20229;-64
2023/05/12 14:10:31;;;;;;;4.07;1.83;;;;;;;;;;5061591;28;20209;-65
2023/05/12 14:12:59;;;;;;;2.03;1.92;;;;;;;;;;5066562;28;20279;-65
2023/05/12 14:15:27;;;;;;;2.30;2.10;;;;;;;;;;5056544;28;20241;-64
2023/05/12 14:18:13;;;;;;;2.08;1.88;;;;;;;;;;5053376;28;20221;-63
2023/05/12 14:20:41;;;;;;;1.70;1.70;;;;;;;;;;5048264;28;20210;-63
2023/05/12 14:23:08;;;;;;;6.78;2.50;;;;;;;;;;5053006;28;20263;-64
2023/05/12 14:25:36;;;;;;;2.72;2.05;;;;;;;;;;5051522;28;20399;-64
2023/05/12 14:28:04;;;;;;;2.53;2.00;;;;;;;;;;5050422;28;20235;-64
2023/05/12 14:30:33;;;;;;;2.25;2.15;;;;;;;;;;5055155;28;20224;-65
2023/05/12 14:33:02;;;;;;;2.00;1.90;;;;;;;;;;5051904;28;20645;-64
2023/05/12 14:35:30;;;;;;;2.50;2.30;;;;;;;;;;5063053;28;20301;-63
2023/05/12 14:37:58;;;;;;;2.70;2.50;;;;;;;;;;5061008;28;20238;-63
2023/05/12 14:40:26;;;;;;;2.17;2.08;;;;;;;;;;5061264;28;20250;-64
2023/05/12 14:42:54;;;;;;;1.95;1.67;;;;;;;;;;5055771;28;20687;-65
2023/05/12 14:45:24;;;;;;;2.70;1.80;;;;;;;;;;5064128;28;20240;-65
2023/05/12 14:47:53;;;;;;;1.85;1.75;;;;;;;;;;5045592;28;20650;-64
2023/05/12 14:50:21;;;;;;;2.33;2.13;;;;;;;;;;5044919;28;20208;-65